createdAt,value
2018-09-03T00:02:11.005Z,17.60
2018-09-03T00:04:40.346Z,16.65
2018-09-03T00:07:09.592Z,16.05
2018-09-03T00:09:41.294Z,17.37
2018-09-03T00:12:11.697Z,15.88
2018-09-03T00:14:41.509Z,16.82
2018-09-03T00:17:11.016Z,16.25
2018-09-03T00:19:40.464Z,17.02
2018-09-03T00:22:10.026Z,17.20
2018-09-03T00:24:39.525Z,16.90
2018-09-03T00:27:08.910Z,17.62
2018-09-03T00:29:38.321Z,16.42
2018-09-03T00:32:13.414Z,18.17
2018-09-03T00:34:47.877Z,18.02
2018-09-03T00:37:22.418Z,17.30
2018-09-03T00:39:56.902Z,15.10
2018-09-03T00:42:31.504Z,15.10
2018-09-03T00:45:05.920Z,15.03
2018-09-03T00:47:35.260Z,15.25
2018-09-03T00:50:04.787Z,15.68
2018-09-03T00:52:34.169Z,14.28
2018-09-03T00:55:03.650Z,14.95
2018-09-03T00:57:33.076Z,16.37
2018-09-03T01:00:02.409Z,15.65
2018-09-03T01:02:31.680Z,15.08
2018-09-03T01:05:00.912Z,17.65
2018-09-03T01:07:30.210Z,17.07
2018-09-03T01:09:59.515Z,16.65
2018-09-03T01:12:28.841Z,15.65
2018-09-03T01:14:58.127Z,18.02
2018-09-03T01:17:27.498Z,18.92
2018-09-03T01:19:56.750Z,15.43
2018-09-03T01:22:26.075Z,16.23
2018-09-03T01:24:55.420Z,15.75
2018-09-03T01:27:24.785Z,17.20
2018-09-03T01:29:54.164Z,16.52
2018-09-03T01:32:23.544Z,15.95
2018-09-03T01:34:52.976Z,17.45
2018-09-03T01:37:22.340Z,17.73
2018-09-03T01:39:51.636Z,14.85
2018-09-03T01:42:21.086Z,15.03
2018-09-03T01:44:50.503Z,14.78
2018-09-03T01:47:19.880Z,14.35
2018-09-03T01:49:49.212Z,13.58
2018-09-03T01:52:18.537Z,14.50
2018-09-03T01:54:47.870Z,14.25
2018-09-03T01:57:17.209Z,14.43
2018-09-03T01:59:46.589Z,14.55
2018-09-03T02:02:15.995Z,14.35
2018-09-03T02:04:45.360Z,12.50
2018-09-03T02:07:14.692Z,15.60
2018-09-03T02:09:44.052Z,15.15
2018-09-03T02:12:13.929Z,16.23
2018-09-03T02:14:44.440Z,16.20
2018-09-03T02:17:15.109Z,16.20
2018-09-03T02:19:44.465Z,20.77
2018-09-03T02:22:13.788Z,20.88
2018-09-03T02:24:43.145Z,15.93
2018-09-03T02:27:12.603Z,15.58
2018-09-03T02:29:42.282Z,15.40
2018-09-03T02:32:11.605Z,15.40
2018-09-03T02:34:41.156Z,15.25
2018-09-03T02:37:10.481Z,16.05
2018-09-03T02:39:39.823Z,16.75
2018-09-03T02:42:09.216Z,16.37
2018-09-03T02:44:38.704Z,17.52
2018-09-03T02:47:08.168Z,15.60
2018-09-03T02:49:37.520Z,16.37
2018-09-03T02:52:07.058Z,19.67
2018-09-03T02:54:36.432Z,14.53
2018-09-03T02:57:05.866Z,13.85
2018-09-03T02:59:35.418Z,15.13
2018-09-03T03:02:04.805Z,14.38
2018-09-03T03:04:34.142Z,14.45
2018-09-03T03:07:03.651Z,13.80
2018-09-03T03:09:32.986Z,16.02
2018-09-03T03:12:02.323Z,14.13
2018-09-03T03:14:31.799Z,14.90
2018-09-03T03:17:01.154Z,16.00
2018-09-03T03:19:30.638Z,17.05
2018-09-03T03:21:59.957Z,13.88
2018-09-03T03:24:29.496Z,13.65
2018-09-03T03:26:59.043Z,15.38
2018-09-03T03:29:28.455Z,15.23
2018-09-03T03:31:57.992Z,14.73
2018-09-03T03:34:27.453Z,15.00
2018-09-03T03:36:56.908Z,14.90
2018-09-03T03:39:26.393Z,14.55
2018-09-03T03:41:55.860Z,15.60
2018-09-03T03:44:25.249Z,14.20
2018-09-03T03:46:54.582Z,15.48
2018-09-03T03:49:24.357Z,17.52
2018-09-03T03:51:53.970Z,16.57
2018-09-03T03:54:23.466Z,16.30
2018-09-03T03:56:52.963Z,15.58
2018-09-03T03:59:22.453Z,23.20
2018-09-03T04:01:51.891Z,15.40
2018-09-03T04:04:21.248Z,17.27
2018-09-03T04:06:50.782Z,14.70
2018-09-03T04:09:20.161Z,15.58
2018-09-03T04:11:49.688Z,15.08
2018-09-03T04:14:19.084Z,14.10
2018-09-03T04:16:48.623Z,13.10
2018-09-03T04:19:17.966Z,14.98
2018-09-03T04:21:47.390Z,15.58
2018-09-03T04:24:16.856Z,13.98
2018-09-03T04:26:46.408Z,15.03
2018-09-03T04:29:15.752Z,14.10
2018-09-03T04:31:45.090Z,13.78
2018-09-03T04:34:15.440Z,14.05
2018-09-03T04:36:44.797Z,15.70
2018-09-03T04:39:14.187Z,16.82
2018-09-03T04:41:43.585Z,14.80
2018-09-03T04:44:12.956Z,16.67
2018-09-03T04:46:42.390Z,15.53
2018-09-03T04:49:11.784Z,13.60
2018-09-03T04:51:41.417Z,14.95
2018-09-03T04:54:10.777Z,15.10
2018-09-03T04:56:40.136Z,15.90
2018-09-03T04:59:09.565Z,16.55
2018-09-03T05:01:38.944Z,12.37
2018-09-03T05:04:08.409Z,14.43
2018-09-03T05:06:37.777Z,14.53
2018-09-03T05:09:07.734Z,16.07
2018-09-03T05:11:37.808Z,22.45
2018-09-03T05:14:07.293Z,17.35
2018-09-03T05:16:36.657Z,16.70
2018-09-03T05:19:06.509Z,16.35
2018-09-03T05:21:35.821Z,15.83
2018-09-03T05:24:05.537Z,17.55
2018-09-03T05:26:35.164Z,17.67
2018-09-03T05:29:05.634Z,17.30
2018-09-03T05:31:35.104Z,23.55
2018-09-03T05:34:04.545Z,21.20
2018-09-03T05:36:34.144Z,25.08
2018-09-03T05:39:03.580Z,22.15
2018-09-03T05:41:33.093Z,21.85
2018-09-03T05:44:03.439Z,20.72
2018-09-03T05:46:32.718Z,21.42
2018-09-03T05:49:02.206Z,23.07
2018-09-03T05:51:31.629Z,26.90
2018-09-03T05:54:01.057Z,20.77
2018-09-03T05:56:30.508Z,23.73
2018-09-03T05:59:00.951Z,25.30
2018-09-03T06:01:30.331Z,24.00
2018-09-03T06:03:59.838Z,23.12
2018-09-03T06:06:29.160Z,25.68
2018-09-03T06:08:58.820Z,27.22
2018-09-03T06:11:28.202Z,28.55
2018-09-03T06:13:57.770Z,25.57
2018-09-03T06:16:27.432Z,29.20
2018-09-03T06:18:56.850Z,27.87
2018-09-03T06:21:26.297Z,31.15
2018-09-03T06:23:56.332Z,25.62
2018-09-03T06:26:25.829Z,26.52
2018-09-03T06:28:55.357Z,25.57
2018-09-03T06:31:24.894Z,27.67
2018-09-03T06:33:54.248Z,24.25
2018-09-03T06:36:24.813Z,33.25
2018-09-03T06:38:54.262Z,27.37
2018-09-03T06:41:24.280Z,21.80
2018-09-03T06:43:53.671Z,36.25
2018-09-03T06:46:23.047Z,32.50
2018-09-03T06:48:52.536Z,32.05
2018-09-03T06:51:22.100Z,35.68
2018-09-03T06:53:51.665Z,40.10
2018-09-03T06:56:21.088Z,31.45
2018-09-03T06:58:50.431Z,38.10
2018-09-03T07:01:19.964Z,31.50
2018-09-03T07:03:49.304Z,31.90
2018-09-03T07:06:18.841Z,39.25
2018-09-03T07:08:48.392Z,33.63
2018-09-03T07:11:17.919Z,32.75
2018-09-03T07:13:47.338Z,29.27
2018-09-03T07:16:16.712Z,33.73
2018-09-03T07:18:46.153Z,33.80
2018-09-03T07:21:15.471Z,40.35
2018-09-03T07:23:44.998Z,33.48
2018-09-03T07:26:14.395Z,28.20
2018-09-03T07:28:43.898Z,36.25
2018-09-03T07:31:13.227Z,31.00
2018-09-03T07:33:42.567Z,28.32
2018-09-03T07:36:12.062Z,34.88
2018-09-03T07:38:41.420Z,29.70
2018-09-03T07:41:11.117Z,28.00
2018-09-03T07:43:40.496Z,24.85
2018-09-03T07:46:09.897Z,32.48
2018-09-03T07:48:39.413Z,30.97
2018-09-03T07:51:08.954Z,33.42
2018-09-03T07:53:38.430Z,28.02
2018-09-03T07:56:08.058Z,29.27
2018-09-03T07:58:37.405Z,32.85
2018-09-03T08:01:07.065Z,34.78
2018-09-03T08:03:36.434Z,33.80
2018-09-03T08:06:06.215Z,35.38
2018-09-03T08:08:35.646Z,33.73
2018-09-03T08:11:05.215Z,35.90
2018-09-03T08:13:40.324Z,39.27
2018-09-03T08:16:11.814Z,29.45
2018-09-03T08:18:41.854Z,27.93
2018-09-03T08:21:12.069Z,25.00
2018-09-03T08:23:41.672Z,28.52
2018-09-03T08:26:11.117Z,25.57
2018-09-03T08:28:41.281Z,27.50
2018-09-03T08:31:10.696Z,27.87
2018-09-03T08:33:40.081Z,29.20
2018-09-03T08:36:09.603Z,30.05
2018-09-03T08:38:39.057Z,32.03
2018-09-03T08:41:08.549Z,31.65
2018-09-03T08:43:38.009Z,34.85
2018-09-03T08:46:07.496Z,27.40
2018-09-03T08:48:37.004Z,34.53
2018-09-03T08:51:06.632Z,32.38
2018-09-03T08:53:36.144Z,29.75
2018-09-03T08:56:05.618Z,26.15
2018-09-03T08:58:35.101Z,36.10
2018-09-03T09:01:04.601Z,27.67
2018-09-03T09:03:39.193Z,27.42
2018-09-03T09:06:08.665Z,30.72
2018-09-03T09:08:38.126Z,31.73
2018-09-03T09:11:08.482Z,29.12
2018-09-03T09:13:37.854Z,29.02
2018-09-03T09:16:07.379Z,26.30
2018-09-03T09:18:36.894Z,28.60
2018-09-03T09:21:06.352Z,25.52
2018-09-03T09:23:36.107Z,29.05
2018-09-03T09:26:05.626Z,25.27
2018-09-03T09:28:35.041Z,27.80
2018-09-03T09:31:04.512Z,26.60
2018-09-03T09:33:34.088Z,28.23
2018-09-03T09:36:03.513Z,28.73
2018-09-03T09:38:32.991Z,29.92
2018-09-03T09:41:02.460Z,30.97
2018-09-03T09:43:31.865Z,32.42
2018-09-03T09:46:01.321Z,25.30
2018-09-03T09:48:30.778Z,24.10
2018-09-03T09:51:00.281Z,27.77
2018-09-03T09:53:29.625Z,25.65
2018-09-03T09:55:59.172Z,24.80
2018-09-03T09:58:29.822Z,24.37
2018-09-03T10:01:04.463Z,26.27
2018-09-03T10:03:34.358Z,28.62
2018-09-03T10:06:03.933Z,30.45
2018-09-03T10:08:33.382Z,26.85
2018-09-03T10:11:02.938Z,25.65
2018-09-03T10:13:32.341Z,30.43
2018-09-03T10:16:01.766Z,28.35
2018-09-03T10:18:31.230Z,29.48
2018-09-03T10:21:00.635Z,28.15
2018-09-03T10:23:30.041Z,31.62
2018-09-03T10:25:59.418Z,27.67
2018-09-03T10:28:29.040Z,27.95
2018-09-03T10:30:58.540Z,25.20
2018-09-03T10:33:28.098Z,26.48
2018-09-03T10:35:57.570Z,25.75
2018-09-03T10:38:26.984Z,22.22
2018-09-03T10:40:56.522Z,26.45
2018-09-03T10:43:25.871Z,24.02
2018-09-03T10:45:55.321Z,26.68
2018-09-03T10:48:24.765Z,24.02
2018-09-03T10:50:54.117Z,27.22
2018-09-03T10:53:23.487Z,25.72
2018-09-03T10:55:52.876Z,27.32
2018-09-03T10:58:22.325Z,28.73
2018-09-03T11:00:51.656Z,27.73
2018-09-03T11:03:21.129Z,26.12
2018-09-03T11:05:50.481Z,27.80
2018-09-03T11:08:20.009Z,24.72
2018-09-03T11:10:49.365Z,23.40
2018-09-03T11:13:18.901Z,27.65
2018-09-03T11:15:48.253Z,25.17
2018-09-03T11:18:17.615Z,24.85
2018-09-03T11:20:46.957Z,27.58
2018-09-03T11:23:16.433Z,24.87
2018-09-03T11:25:45.825Z,22.70
2018-09-03T11:28:15.382Z,26.70
2018-09-03T11:30:45.027Z,22.42
2018-09-03T11:33:14.613Z,23.45
2018-09-03T11:35:44.285Z,21.50
2018-09-03T11:38:13.905Z,24.12
2018-09-03T11:40:43.364Z,23.05
2018-09-03T11:43:12.812Z,23.00
2018-09-03T11:45:42.236Z,22.58
2018-09-03T11:48:11.735Z,22.27
2018-09-03T11:50:41.101Z,21.87
2018-09-03T11:53:10.529Z,22.60
2018-09-03T11:55:39.891Z,19.02
2018-09-03T11:58:10.323Z,21.55
2018-09-03T12:00:39.735Z,19.25
2018-09-03T12:03:09.007Z,18.40
2018-09-03T12:05:38.382Z,17.62
2018-09-03T12:08:07.737Z,16.62
2018-09-03T12:10:37.656Z,16.60
2018-09-03T12:13:07.058Z,20.15
2018-09-03T12:15:43.344Z,17.77
2018-09-03T12:18:12.707Z,17.12
2018-09-03T12:20:42.100Z,16.55
2018-09-03T12:23:11.629Z,16.52
2018-09-03T12:25:41.085Z,17.35
2018-09-03T12:28:10.397Z,16.42
2018-09-03T12:30:39.731Z,15.00
2018-09-03T12:33:09.060Z,15.10
2018-09-03T12:35:39.367Z,14.23
2018-09-03T12:38:08.969Z,13.93
2018-09-03T12:40:38.469Z,15.63
2018-09-03T12:43:07.982Z,14.83
2018-09-03T12:45:42.668Z,14.18
2018-09-03T12:48:12.125Z,14.98
2018-09-03T12:50:41.681Z,16.60
2018-09-03T12:53:11.235Z,16.27
2018-09-03T12:55:40.748Z,15.32
2018-09-03T12:58:10.218Z,15.23
2018-09-03T13:00:39.568Z,15.55
2018-09-03T13:03:09.145Z,14.47
2018-09-03T13:05:38.417Z,16.95
2018-09-03T13:08:08.220Z,14.75
2018-09-03T13:10:37.825Z,14.53
2018-09-03T13:13:07.414Z,13.83
2018-09-03T13:15:36.729Z,14.25
2018-09-03T13:18:06.680Z,13.10
2018-09-03T13:20:36.021Z,13.60
2018-09-03T13:23:05.448Z,14.78
2018-09-03T13:25:34.843Z,13.88
2018-09-03T13:28:05.097Z,14.70
2018-09-03T13:30:34.578Z,15.30
2018-09-03T13:33:04.125Z,14.95
2018-09-03T13:35:33.479Z,14.73
2018-09-03T13:38:02.988Z,15.38
2018-09-03T13:40:32.560Z,14.68
2018-09-03T13:43:01.878Z,16.55
2018-09-03T13:45:31.444Z,15.60
2018-09-03T13:48:00.916Z,14.50
2018-09-03T13:50:30.415Z,13.65
2018-09-03T13:52:59.849Z,13.78
2018-09-03T13:55:29.356Z,16.20
2018-09-03T13:57:58.704Z,15.30
2018-09-03T14:00:28.232Z,15.30
2018-09-03T14:02:57.821Z,15.90
2018-09-03T14:05:27.276Z,16.95
2018-09-03T14:07:56.709Z,15.93
2018-09-03T14:10:26.162Z,15.55
2018-09-03T14:12:55.597Z,16.50
2018-09-03T14:15:25.269Z,13.83
2018-09-03T14:17:54.638Z,14.85
2018-09-03T14:20:23.977Z,15.15
2018-09-03T14:22:53.346Z,15.90
2018-09-03T14:25:22.709Z,16.00
2018-09-03T14:27:52.059Z,15.93
2018-09-03T14:30:21.452Z,16.02
2018-09-03T14:32:50.947Z,15.88
2018-09-03T14:35:20.412Z,17.67
2018-09-03T14:37:49.995Z,16.65
2018-09-03T14:40:19.525Z,16.25
2018-09-03T14:42:49.151Z,16.82
2018-09-03T14:45:18.651Z,15.63
2018-09-03T14:47:48.023Z,16.17
2018-09-03T14:50:17.430Z,14.80
2018-09-03T14:52:46.885Z,14.95
2018-09-03T14:55:16.470Z,17.40
2018-09-03T14:57:45.896Z,18.35
2018-09-03T15:00:15.348Z,15.70
2018-09-03T15:02:44.770Z,15.25
2018-09-03T15:05:17.046Z,15.60
2018-09-03T15:07:46.454Z,14.78
2018-09-03T15:10:15.808Z,15.53
2018-09-03T15:12:45.156Z,15.60
2018-09-03T15:15:15.551Z,15.58
2018-09-03T15:17:44.972Z,15.08
2018-09-03T15:20:15.193Z,15.18
2018-09-03T15:22:44.738Z,15.58
2018-09-03T15:25:14.164Z,14.40
2018-09-03T15:27:43.660Z,14.95
2018-09-03T15:30:13.049Z,14.63
2018-09-03T15:32:42.409Z,15.53
2018-09-03T15:35:11.847Z,14.95
2018-09-03T15:37:41.343Z,14.98
2018-09-03T15:40:11.094Z,16.80
2018-09-03T15:42:40.607Z,15.18
2018-09-03T15:45:10.146Z,15.50
2018-09-03T15:47:39.609Z,16.00
2018-09-03T15:50:09.040Z,14.35
2018-09-03T15:52:38.561Z,15.10
2018-09-03T15:55:08.196Z,16.00
2018-09-03T15:57:37.653Z,15.43
2018-09-03T16:00:09.248Z,14.00
2018-09-03T16:02:38.849Z,14.35
2018-09-03T16:05:08.674Z,14.98
2018-09-03T16:07:38.224Z,16.20
2018-09-03T16:10:08.006Z,16.02
2018-09-03T16:12:37.445Z,19.30
2018-09-03T16:15:07.276Z,14.30
2018-09-03T16:17:36.879Z,13.60
2018-09-03T16:20:06.623Z,12.75
2018-09-03T16:22:36.094Z,11.30
2018-09-03T16:25:05.667Z,8.95
2018-09-03T16:27:35.314Z,8.70
2018-09-03T16:30:04.920Z,9.48
2018-09-03T16:32:34.419Z,8.33
2018-09-03T16:35:03.934Z,8.95
2018-09-03T16:37:33.266Z,7.90
2018-09-03T16:40:02.718Z,8.40
2018-09-03T16:42:32.213Z,8.95
2018-09-03T16:45:01.740Z,9.23
2018-09-03T16:47:31.156Z,8.13
2018-09-03T16:50:00.497Z,7.78
2018-09-03T16:52:30.091Z,8.85
2018-09-03T16:54:59.549Z,8.03
2018-09-03T16:57:28.922Z,7.70
2018-09-03T16:59:58.533Z,7.78
2018-09-03T17:02:28.004Z,7.20
2018-09-03T17:04:57.468Z,7.00
2018-09-03T17:07:27.531Z,7.53
2018-09-03T17:09:57.631Z,7.80
2018-09-03T17:12:27.851Z,7.40
2018-09-03T17:14:57.529Z,7.08
2018-09-03T17:17:27.085Z,8.08
2018-09-03T17:19:56.502Z,7.10
2018-09-03T17:22:26.050Z,7.25
2018-09-03T17:24:55.679Z,7.53
2018-09-03T17:27:26.260Z,8.98
2018-09-03T17:29:55.816Z,7.15
2018-09-03T17:32:25.776Z,7.40
2018-09-03T17:34:55.115Z,8.98
2018-09-03T17:37:24.479Z,7.58
2018-09-03T17:39:53.848Z,7.97
2018-09-03T17:42:23.231Z,7.53
2018-09-03T17:44:52.600Z,7.65
2018-09-03T17:47:21.948Z,7.10
2018-09-03T17:49:51.324Z,7.50
2018-09-03T17:52:20.949Z,8.65
2018-09-03T17:54:50.276Z,6.92
2018-09-03T17:57:19.660Z,10.68
2018-09-03T17:59:48.983Z,8.28
2018-09-03T18:02:18.354Z,7.92
2018-09-03T18:04:47.777Z,8.30
2018-09-03T18:07:17.515Z,8.35
2018-09-03T18:09:46.917Z,8.75
2018-09-03T18:12:16.385Z,8.55
2018-09-03T18:14:45.828Z,9.18
2018-09-03T18:17:15.348Z,9.15
2018-09-03T18:19:44.789Z,7.90
2018-09-03T18:22:14.313Z,8.38
2018-09-03T18:24:43.797Z,8.45
2018-09-03T18:27:13.143Z,7.08
2018-09-03T18:29:42.530Z,8.20
2018-09-03T18:32:11.908Z,7.15
2018-09-03T18:34:41.296Z,8.45
2018-09-03T18:37:11.209Z,7.90
2018-09-03T18:39:40.575Z,7.90
2018-09-03T18:42:11.011Z,7.95
2018-09-03T18:44:40.565Z,8.20
2018-09-03T18:47:10.700Z,7.55
2018-09-03T18:49:40.194Z,7.78
2018-09-03T18:52:09.739Z,8.93
2018-09-03T18:54:39.251Z,7.80
2018-09-03T18:57:08.861Z,7.75
2018-09-03T18:59:38.281Z,8.38
2018-09-03T19:02:07.705Z,8.53
2018-09-03T19:04:37.202Z,9.78
2018-09-03T19:07:06.612Z,7.80
2018-09-03T19:09:36.014Z,8.65
2018-09-03T19:12:06.565Z,7.22
2018-09-03T19:14:35.965Z,7.83
2018-09-03T19:17:05.723Z,7.85
2018-09-03T19:19:35.412Z,8.38
2018-09-03T19:22:04.934Z,8.03
2018-09-03T19:24:34.422Z,7.85
2018-09-03T19:27:04.470Z,8.13
2018-09-03T19:29:33.919Z,8.73
2018-09-03T19:32:03.408Z,8.55
2018-09-03T19:34:33.437Z,8.18
2018-09-03T19:37:02.814Z,8.25
2018-09-03T19:39:32.293Z,7.15
2018-09-03T19:42:01.832Z,8.05
2018-09-03T19:44:31.370Z,8.70
2018-09-03T19:47:00.886Z,8.80
2018-09-03T19:49:30.207Z,8.08
2018-09-03T19:51:59.695Z,8.33
2018-09-03T19:54:29.140Z,9.65
2018-09-03T19:56:58.470Z,7.95
2018-09-03T19:59:27.816Z,7.72
2018-09-03T20:01:57.238Z,7.90
2018-09-03T20:04:26.564Z,7.45
2018-09-03T20:06:55.888Z,8.75
2018-09-03T20:09:25.233Z,7.03
2018-09-03T20:11:54.617Z,7.80
2018-09-03T20:14:24.653Z,7.30
2018-09-03T20:16:55.002Z,10.00
2018-09-03T20:19:24.385Z,8.73
2018-09-03T20:21:53.730Z,8.03
2018-09-03T20:24:23.141Z,7.37
2018-09-03T20:26:52.523Z,9.85
2018-09-03T20:29:21.935Z,7.72
2018-09-03T20:31:51.345Z,10.13
2018-09-03T20:34:20.789Z,8.38
2018-09-03T20:36:50.157Z,7.12
2018-09-03T20:39:19.500Z,8.05
2018-09-03T20:41:48.890Z,7.22
2018-09-03T20:44:18.289Z,7.97
2018-09-03T20:46:47.916Z,8.28
2018-09-03T20:49:17.257Z,7.78
2018-09-03T20:51:46.782Z,7.75
2018-09-03T20:54:16.036Z,7.65
2018-09-03T20:56:45.367Z,7.42
2018-09-03T20:59:14.686Z,8.45
2018-09-03T21:01:44.089Z,7.83
2018-09-03T21:04:13.458Z,6.67
2018-09-03T21:06:42.806Z,7.97
2018-09-03T21:09:12.152Z,7.60
2018-09-03T21:11:41.579Z,8.28
2018-09-03T21:14:10.897Z,10.20
2018-09-03T21:16:40.257Z,8.28
2018-09-03T21:19:09.581Z,8.15
2018-09-03T21:21:39.143Z,8.00
2018-09-03T21:24:08.478Z,7.12
2018-09-03T21:26:37.958Z,7.72
2018-09-03T21:29:07.305Z,7.87
2018-09-03T21:31:36.669Z,8.18
2018-09-03T21:34:06.070Z,8.55
2018-09-03T21:36:35.431Z,7.80
2018-09-03T21:39:05.291Z,8.03
2018-09-03T21:41:34.590Z,8.08
2018-09-03T21:44:04.391Z,8.20
2018-09-03T21:46:33.734Z,8.23
2018-09-03T21:49:03.158Z,7.53
2018-09-03T21:51:32.525Z,7.78
2018-09-03T21:54:01.844Z,9.55
2018-09-03T21:56:31.256Z,7.60
2018-09-03T21:59:00.579Z,7.22
2018-09-03T22:01:29.903Z,6.75
2018-09-03T22:03:59.217Z,8.15
2018-09-03T22:06:29.231Z,8.05
2018-09-03T22:08:58.592Z,8.93
2018-09-03T22:11:28.036Z,8.28
2018-09-03T22:13:57.412Z,7.65
2018-09-03T22:16:26.752Z,8.88
2018-09-03T22:18:56.073Z,7.20
2018-09-03T22:21:25.432Z,6.65
2018-09-03T22:23:54.867Z,7.25
2018-09-03T22:26:24.185Z,7.80
2018-09-03T22:28:53.493Z,7.00
2018-09-03T22:31:22.938Z,7.85
2018-09-03T22:33:52.285Z,7.37
2018-09-03T22:36:21.596Z,7.45
2018-09-03T22:38:50.929Z,6.65
2018-09-03T22:41:20.281Z,7.12
2018-09-03T22:43:49.640Z,7.58
2018-09-03T22:46:19.001Z,7.22
2018-09-03T22:48:48.387Z,7.87
2018-09-03T22:51:17.847Z,7.80
2018-09-03T22:53:47.144Z,8.13
2018-09-03T22:56:16.502Z,7.72
2018-09-03T22:58:45.804Z,8.65
2018-09-03T23:01:15.197Z,7.30
2018-09-03T23:03:44.517Z,6.75
2018-09-03T23:06:13.851Z,7.83
2018-09-03T23:08:43.241Z,7.50
2018-09-03T23:11:12.793Z,7.30
2018-09-03T23:13:42.072Z,7.47
2018-09-03T23:16:11.390Z,7.50
2018-09-03T23:18:40.748Z,7.58
2018-09-03T23:21:10.122Z,7.72
2018-09-03T23:23:39.647Z,8.28
2018-09-03T23:26:08.976Z,8.30
2018-09-03T23:28:38.326Z,8.38
2018-09-03T23:31:08.095Z,8.63
2018-09-03T23:33:37.445Z,8.33
2018-09-03T23:36:06.988Z,8.68
2018-09-03T23:38:36.335Z,8.68
2018-09-03T23:41:05.884Z,9.18
2018-09-03T23:43:35.281Z,8.05
2018-09-03T23:46:04.723Z,9.03
2018-09-03T23:48:34.195Z,8.58
2018-09-03T23:51:03.571Z,8.78
2018-09-03T23:53:33.038Z,8.10
2018-09-03T23:56:02.515Z,8.80
2018-09-03T23:58:31.844Z,8.90
